sensor_id;sensor_type;location;lat;lon;timestamp;P1;durP1;ratioP1;P2;durP2;ratioP2
53309;SDS011;39197;53.200;5.792;2023-09-19T00:01:41;8.52;;;1.75;;
53309;SDS011;39197;53.200;5.792;2023-09-19T00:04:11;6.15;;;1.05;;
53309;SDS011;39197;53.200;5.792;2023-09-19T00:06:37;11.95;;;2.03;;
53309;SDS011;39197;53.200;5.792;2023-09-19T00:09:04;8.50;;;1.17;;
53309;SDS011;39197;53.200;5.792;2023-09-19T00:11:30;10.02;;;1.73;;
53309;SDS011;39197;53.200;5.792;2023-09-19T00:13:56;8.40;;;2.10;;
53309;SDS011;39197;53.200;5.792;2023-09-19T00:16:24;14.82;;;2.22;;
53309;SDS011;39197;53.200;5.792;2023-09-19T00:18:50;11.52;;;1.52;;
53309;SDS011;39197;53.200;5.792;2023-09-19T00:21:17;9.65;;;1.45;;
53309;SDS011;39197;53.200;5.792;2023-09-19T00:23:44;8.40;;;1.55;;
53309;SDS011;39197;53.200;5.792;2023-09-19T00:26:10;6.55;;;1.25;;
53309;SDS011;39197;53.200;5.792;2023-09-19T00:28:35;9.40;;;1.30;;
53309;SDS011;39197;53.200;5.792;2023-09-19T00:31:01;12.38;;;1.80;;
53309;SDS011;39197;53.200;5.792;2023-09-19T00:33:27;11.80;;;1.30;;
53309;SDS011;39197;53.200;5.792;2023-09-19T00:35:54;11.52;;;1.70;;
53309;SDS011;39197;53.200;5.792;2023-09-19T00:38:21;11.07;;;1.55;;
53309;SDS011;39197;53.200;5.792;2023-09-19T00:40:49;9.25;;;1.80;;
53309;SDS011;39197;53.200;5.792;2023-09-19T00:43:18;10.00;;;1.90;;
53309;SDS011;39197;53.200;5.792;2023-09-19T00:45:45;9.90;;;1.88;;
53309;SDS011;39197;53.200;5.792;2023-09-19T00:48:13;9.15;;;2.08;;
53309;SDS011;39197;53.200;5.792;2023-09-19T00:50:41;11.70;;;1.73;;
53309;SDS011;39197;53.200;5.792;2023-09-19T00:53:08;10.20;;;1.40;;
53309;SDS011;39197;53.200;5.792;2023-09-19T00:55:36;7.85;;;0.98;;
53309;SDS011;39197;53.200;5.792;2023-09-19T00:58:09;7.40;;;1.58;;
53309;SDS011;39197;53.200;5.792;2023-09-19T01:00:35;10.23;;;1.10;;
53309;SDS011;39197;53.200;5.792;2023-09-19T01:03:01;8.02;;;1.30;;
53309;SDS011;39197;53.200;5.792;2023-09-19T01:05:27;10.02;;;0.98;;
53309;SDS011;39197;53.200;5.792;2023-09-19T01:07:54;11.43;;;1.52;;
53309;SDS011;39197;53.200;5.792;2023-09-19T01:10:20;18.98;;;1.52;;
53309;SDS011;39197;53.200;5.792;2023-09-19T01:15:27;11.98;;;1.63;;
53309;SDS011;39197;53.200;5.792;2023-09-19T01:21:08;8.13;;;1.25;;
53309;SDS011;39197;53.200;5.792;2023-09-19T01:26:23;12.73;;;1.48;;
53309;SDS011;39197;53.200;5.792;2023-09-19T01:31:59;9.45;;;1.73;;
53309;SDS011;39197;53.200;5.792;2023-09-19T01:34:27;8.48;;;1.38;;
53309;SDS011;39197;53.200;5.792;2023-09-19T01:37:12;8.38;;;1.20;;
53309;SDS011;39197;53.200;5.792;2023-09-19T01:39:39;8.77;;;1.15;;
53309;SDS011;39197;53.200;5.792;2023-09-19T01:47:17;7.88;;;1.50;;
53309;SDS011;39197;53.200;5.792;2023-09-19T01:52:32;11.10;;;1.30;;
53309;SDS011;39197;53.200;5.792;2023-09-19T01:55:05;13.27;;;1.83;;
53309;SDS011;39197;53.200;5.792;2023-09-19T01:57:37;9.15;;;1.13;;
53309;SDS011;39197;53.200;5.792;2023-09-19T02:00:09;7.55;;;1.88;;
53309;SDS011;39197;53.200;5.792;2023-09-19T02:02:41;9.77;;;1.60;;
53309;SDS011;39197;53.200;5.792;2023-09-19T02:05:10;5.88;;;0.68;;
53309;SDS011;39197;53.200;5.792;2023-09-19T02:07:37;9.00;;;1.23;;
53309;SDS011;39197;53.200;5.792;2023-09-19T02:10:04;7.28;;;1.10;;
53309;SDS011;39197;53.200;5.792;2023-09-19T02:12:31;8.05;;;1.00;;
53309;SDS011;39197;53.200;5.792;2023-09-19T02:14:58;6.57;;;0.90;;
53309;SDS011;39197;53.200;5.792;2023-09-19T02:17:24;7.97;;;0.60;;
53309;SDS011;39197;53.200;5.792;2023-09-19T02:19:53;12.07;;;1.45;;
53309;SDS011;39197;53.200;5.792;2023-09-19T02:22:24;8.70;;;1.10;;
53309;SDS011;39197;53.200;5.792;2023-09-19T02:24:50;8.98;;;1.02;;
53309;SDS011;39197;53.200;5.792;2023-09-19T02:27:16;9.00;;;2.00;;
53309;SDS011;39197;53.200;5.792;2023-09-19T02:29:42;12.48;;;2.28;;
53309;SDS011;39197;53.200;5.792;2023-09-19T02:32:08;11.27;;;1.55;;
53309;SDS011;39197;53.200;5.792;2023-09-19T02:34:36;9.15;;;1.15;;
53309;SDS011;39197;53.200;5.792;2023-09-19T02:37:04;11.05;;;1.50;;
53309;SDS011;39197;53.200;5.792;2023-09-19T02:39:33;10.30;;;1.35;;
53309;SDS011;39197;53.200;5.792;2023-09-19T02:41:59;7.03;;;1.45;;
53309;SDS011;39197;53.200;5.792;2023-09-19T02:44:25;11.13;;;1.25;;
53309;SDS011;39197;53.200;5.792;2023-09-19T02:46:50;9.50;;;0.98;;
53309;SDS011;39197;53.200;5.792;2023-09-19T02:49:16;12.00;;;1.10;;
53309;SDS011;39197;53.200;5.792;2023-09-19T02:51:43;11.90;;;1.13;;
53309;SDS011;39197;53.200;5.792;2023-09-19T02:54:09;16.77;;;2.53;;
53309;SDS011;39197;53.200;5.792;2023-09-19T02:56:35;14.88;;;1.60;;
53309;SDS011;39197;53.200;5.792;2023-09-19T02:59:01;12.13;;;1.15;;
53309;SDS011;39197;53.200;5.792;2023-09-19T03:01:27;9.73;;;1.05;;
53309;SDS011;39197;53.200;5.792;2023-09-19T03:03:55;10.38;;;1.98;;
53309;SDS011;39197;53.200;5.792;2023-09-19T03:06:21;8.10;;;1.30;;
53309;SDS011;39197;53.200;5.792;2023-09-19T03:08:47;10.65;;;1.23;;
53309;SDS011;39197;53.200;5.792;2023-09-19T03:11:15;7.50;;;1.02;;
53309;SDS011;39197;53.200;5.792;2023-09-19T03:13:43;8.43;;;1.20;;
53309;SDS011;39197;53.200;5.792;2023-09-19T03:16:10;10.38;;;1.23;;
53309;SDS011;39197;53.200;5.792;2023-09-19T03:18:36;9.50;;;1.38;;
53309;SDS011;39197;53.200;5.792;2023-09-19T03:21:02;10.48;;;0.98;;
53309;SDS011;39197;53.200;5.792;2023-09-19T03:23:28;12.50;;;1.60;;
53309;SDS011;39197;53.200;5.792;2023-09-19T03:25:54;8.68;;;0.88;;
53309;SDS011;39197;53.200;5.792;2023-09-19T03:28:21;8.48;;;1.00;;
53309;SDS011;39197;53.200;5.792;2023-09-19T03:31:03;11.85;;;1.65;;
53309;SDS011;39197;53.200;5.792;2023-09-19T03:33:29;6.68;;;1.30;;
53309;SDS011;39197;53.200;5.792;2023-09-19T03:35:59;10.50;;;1.23;;
53309;SDS011;39197;53.200;5.792;2023-09-19T03:38:26;8.57;;;1.80;;
53309;SDS011;39197;53.200;5.792;2023-09-19T03:40:53;14.52;;;2.08;;
53309;SDS011;39197;53.200;5.792;2023-09-19T03:43:18;10.50;;;1.00;;
53309;SDS011;39197;53.200;5.792;2023-09-19T03:45:44;13.63;;;1.90;;
53309;SDS011;39197;53.200;5.792;2023-09-19T03:48:11;11.35;;;1.50;;
53309;SDS011;39197;53.200;5.792;2023-09-19T03:50:38;14.88;;;2.17;;
53309;SDS011;39197;53.200;5.792;2023-09-19T03:53:04;10.55;;;1.45;;
53309;SDS011;39197;53.200;5.792;2023-09-19T03:55:32;7.72;;;1.08;;
53309;SDS011;39197;53.200;5.792;2023-09-19T03:58:00;11.13;;;1.40;;
53309;SDS011;39197;53.200;5.792;2023-09-19T04:00:29;13.23;;;2.20;;
53309;SDS011;39197;53.200;5.792;2023-09-19T04:02:55;11.27;;;1.88;;
53309;SDS011;39197;53.200;5.792;2023-09-19T04:05:22;5.75;;;1.00;;
53309;SDS011;39197;53.200;5.792;2023-09-19T04:07:48;13.25;;;1.70;;
53309;SDS011;39197;53.200;5.792;2023-09-19T04:10:14;6.55;;;0.95;;
53309;SDS011;39197;53.200;5.792;2023-09-19T04:12:40;7.90;;;1.10;;
53309;SDS011;39197;53.200;5.792;2023-09-19T04:15:05;12.00;;;1.45;;
53309;SDS011;39197;53.200;5.792;2023-09-19T04:17:32;15.00;;;1.35;;
53309;SDS011;39197;53.200;5.792;2023-09-19T04:19:58;15.15;;;2.30;;
53309;SDS011;39197;53.200;5.792;2023-09-19T04:22:24;8.23;;;0.95;;
53309;SDS011;39197;53.200;5.792;2023-09-19T04:24:50;6.57;;;0.90;;
53309;SDS011;39197;53.200;5.792;2023-09-19T04:27:15;4.88;;;0.85;;
53309;SDS011;39197;53.200;5.792;2023-09-19T04:29:41;7.90;;;0.90;;
53309;SDS011;39197;53.200;5.792;2023-09-19T04:32:07;10.15;;;1.08;;
53309;SDS011;39197;53.200;5.792;2023-09-19T04:34:34;11.60;;;1.75;;
53309;SDS011;39197;53.200;5.792;2023-09-19T04:37:00;7.72;;;0.88;;
53309;SDS011;39197;53.200;5.792;2023-09-19T04:39:27;10.57;;;1.55;;
53309;SDS011;39197;53.200;5.792;2023-09-19T04:41:53;12.45;;;1.60;;
53309;SDS011;39197;53.200;5.792;2023-09-19T04:44:20;4.72;;;0.80;;
53309;SDS011;39197;53.200;5.792;2023-09-19T04:46:46;5.35;;;1.05;;
53309;SDS011;39197;53.200;5.792;2023-09-19T04:49:11;11.10;;;1.45;;
53309;SDS011;39197;53.200;5.792;2023-09-19T04:51:38;8.38;;;1.25;;
53309;SDS011;39197;53.200;5.792;2023-09-19T04:54:04;9.35;;;1.58;;
53309;SDS011;39197;53.200;5.792;2023-09-19T04:56:30;6.43;;;1.33;;
53309;SDS011;39197;53.200;5.792;2023-09-19T04:58:57;9.18;;;1.67;;
53309;SDS011;39197;53.200;5.792;2023-09-19T05:01:23;8.05;;;1.17;;
53309;SDS011;39197;53.200;5.792;2023-09-19T05:03:49;13.02;;;1.75;;
53309;SDS011;39197;53.200;5.792;2023-09-19T05:06:19;16.77;;;1.85;;
53309;SDS011;39197;53.200;5.792;2023-09-19T05:08:50;12.82;;;1.85;;
53309;SDS011;39197;53.200;5.792;2023-09-19T05:11:20;9.68;;;1.25;;
53309;SDS011;39197;53.200;5.792;2023-09-19T05:13:49;11.70;;;1.70;;
53309;SDS011;39197;53.200;5.792;2023-09-19T05:16:15;8.90;;;1.50;;
53309;SDS011;39197;53.200;5.792;2023-09-19T05:18:41;15.25;;;2.53;;
53309;SDS011;39197;53.200;5.792;2023-09-19T05:21:07;10.93;;;1.95;;
53309;SDS011;39197;53.200;5.792;2023-09-19T05:23:33;8.32;;;1.45;;
53309;SDS011;39197;53.200;5.792;2023-09-19T05:25:59;8.57;;;1.10;;
53309;SDS011;39197;53.200;5.792;2023-09-19T05:28:25;9.63;;;1.20;;
53309;SDS011;39197;53.200;5.792;2023-09-19T05:30:51;12.65;;;1.38;;
53309;SDS011;39197;53.200;5.792;2023-09-19T05:33:18;6.85;;;0.70;;
53309;SDS011;39197;53.200;5.792;2023-09-19T05:35:44;10.30;;;1.35;;
53309;SDS011;39197;53.200;5.792;2023-09-19T05:38:12;6.80;;;1.02;;
53309;SDS011;39197;53.200;5.792;2023-09-19T05:40:38;9.77;;;1.20;;
53309;SDS011;39197;53.200;5.792;2023-09-19T05:43:08;13.10;;;1.35;;
53309;SDS011;39197;53.200;5.792;2023-09-19T05:45:34;8.15;;;1.25;;
53309;SDS011;39197;53.200;5.792;2023-09-19T05:48:13;6.70;;;1.23;;
53309;SDS011;39197;53.200;5.792;2023-09-19T05:50:41;16.38;;;2.00;;
53309;SDS011;39197;53.200;5.792;2023-09-19T05:53:08;8.80;;;1.42;;
53309;SDS011;39197;53.200;5.792;2023-09-19T05:55:39;8.32;;;1.27;;
53309;SDS011;39197;53.200;5.792;2023-09-19T05:58:05;3.58;;;0.40;;
53309;SDS011;39197;53.200;5.792;2023-09-19T06:00:31;8.02;;;1.30;;
53309;SDS011;39197;53.200;5.792;2023-09-19T06:02:57;8.95;;;0.90;;
53309;SDS011;39197;53.200;5.792;2023-09-19T06:05:24;19.10;;;2.03;;
53309;SDS011;39197;53.200;5.792;2023-09-19T06:07:53;8.52;;;1.35;;
53309;SDS011;39197;53.200;5.792;2023-09-19T06:10:19;13.23;;;1.25;;
53309;SDS011;39197;53.200;5.792;2023-09-19T06:12:48;8.93;;;1.35;;
53309;SDS011;39197;53.200;5.792;2023-09-19T06:15:14;7.10;;;1.17;;
53309;SDS011;39197;53.200;5.792;2023-09-19T06:18:14;10.40;;;1.48;;
53309;SDS011;39197;53.200;5.792;2023-09-19T06:20:37;10.75;;;1.70;;
53309;SDS011;39197;53.200;5.792;2023-09-19T06:23:02;7.97;;;1.35;;
53309;SDS011;39197;53.200;5.792;2023-09-19T06:25:28;10.10;;;1.95;;
53309;SDS011;39197;53.200;5.792;2023-09-19T06:27:54;12.60;;;2.30;;
53309;SDS011;39197;53.200;5.792;2023-09-19T06:30:21;7.22;;;1.25;;
53309;SDS011;39197;53.200;5.792;2023-09-19T06:32:48;13.38;;;2.08;;
53309;SDS011;39197;53.200;5.792;2023-09-19T06:35:15;4.82;;;0.63;;
53309;SDS011;39197;53.200;5.792;2023-09-19T06:37:41;10.48;;;1.60;;
53309;SDS011;39197;53.200;5.792;2023-09-19T06:42:42;5.95;;;1.98;;
53309;SDS011;39197;53.200;5.792;2023-09-19T06:45:10;10.18;;;2.60;;
53309;SDS011;39197;53.200;5.792;2023-09-19T06:47:38;9.38;;;1.35;;
53309;SDS011;39197;53.200;5.792;2023-09-19T06:50:05;13.32;;;2.15;;
53309;SDS011;39197;53.200;5.792;2023-09-19T06:52:34;8.30;;;0.90;;
53309;SDS011;39197;53.200;5.792;2023-09-19T06:55:00;11.77;;;1.15;;
53309;SDS011;39197;53.200;5.792;2023-09-19T06:57:28;10.85;;;1.63;;
53309;SDS011;39197;53.200;5.792;2023-09-19T06:59:55;10.55;;;1.55;;
53309;SDS011;39197;53.200;5.792;2023-09-19T07:02:21;8.65;;;1.33;;
53309;SDS011;39197;53.200;5.792;2023-09-19T07:04:47;9.73;;;1.73;;
53309;SDS011;39197;53.200;5.792;2023-09-19T07:07:12;6.78;;;1.02;;
53309;SDS011;39197;53.200;5.792;2023-09-19T07:09:39;12.02;;;1.42;;
53309;SDS011;39197;53.200;5.792;2023-09-19T07:12:04;10.18;;;1.60;;
53309;SDS011;39197;53.200;5.792;2023-09-19T07:14:30;9.05;;;1.30;;
53309;SDS011;39197;53.200;5.792;2023-09-19T07:16:57;5.20;;;0.70;;
53309;SDS011;39197;53.200;5.792;2023-09-19T07:19:25;7.80;;;1.10;;
53309;SDS011;39197;53.200;5.792;2023-09-19T07:21:53;6.85;;;1.73;;
53309;SDS011;39197;53.200;5.792;2023-09-19T07:24:19;10.85;;;2.03;;
53309;SDS011;39197;53.200;5.792;2023-09-19T07:26:47;5.50;;;0.98;;
53309;SDS011;39197;53.200;5.792;2023-09-19T07:29:13;7.10;;;1.20;;
53309;SDS011;39197;53.200;5.792;2023-09-19T07:31:39;11.45;;;1.48;;
53309;SDS011;39197;53.200;5.792;2023-09-19T07:34:04;5.93;;;1.48;;
53309;SDS011;39197;53.200;5.792;2023-09-19T07:36:30;12.93;;;1.58;;
53309;SDS011;39197;53.200;5.792;2023-09-19T07:38:57;7.07;;;1.23;;
53309;SDS011;39197;53.200;5.792;2023-09-19T07:41:23;9.52;;;1.73;;
53309;SDS011;39197;53.200;5.792;2023-09-19T07:43:49;4.00;;;1.00;;
53309;SDS011;39197;53.200;5.792;2023-09-19T07:46:15;2.67;;;0.52;;
53309;SDS011;39197;53.200;5.792;2023-09-19T07:48:40;11.32;;;1.23;;
53309;SDS011;39197;53.200;5.792;2023-09-19T07:51:09;4.13;;;0.40;;
53309;SDS011;39197;53.200;5.792;2023-09-19T07:53:35;9.00;;;1.75;;
53309;SDS011;39197;53.200;5.792;2023-09-19T07:56:05;16.42;;;2.30;;
53309;SDS011;39197;53.200;5.792;2023-09-19T07:58:32;3.15;;;0.80;;
53309;SDS011;39197;53.200;5.792;2023-09-19T08:01:07;7.43;;;1.08;;
53309;SDS011;39197;53.200;5.792;2023-09-19T08:03:35;6.40;;;1.30;;
53309;SDS011;39197;53.200;5.792;2023-09-19T08:06:06;11.32;;;1.45;;
53309;SDS011;39197;53.200;5.792;2023-09-19T08:08:33;12.10;;;1.77;;
53309;SDS011;39197;53.200;5.792;2023-09-19T08:11:02;7.45;;;1.25;;
53309;SDS011;39197;53.200;5.792;2023-09-19T08:13:46;10.68;;;1.17;;
53309;SDS011;39197;53.200;5.792;2023-09-19T08:16:14;13.35;;;2.17;;
53309;SDS011;39197;53.200;5.792;2023-09-19T08:18:41;8.20;;;1.63;;
53309;SDS011;39197;53.200;5.792;2023-09-19T08:21:07;11.80;;;1.85;;
53309;SDS011;39197;53.200;5.792;2023-09-19T08:23:36;9.55;;;1.33;;
53309;SDS011;39197;53.200;5.792;2023-09-19T08:26:03;15.43;;;2.83;;
53309;SDS011;39197;53.200;5.792;2023-09-19T08:28:32;8.68;;;1.27;;
53309;SDS011;39197;53.200;5.792;2023-09-19T08:31:04;7.57;;;1.13;;
53309;SDS011;39197;53.200;5.792;2023-09-19T08:33:31;10.38;;;1.60;;
53309;SDS011;39197;53.200;5.792;2023-09-19T08:35:58;8.05;;;2.33;;
53309;SDS011;39197;53.200;5.792;2023-09-19T08:38:24;8.00;;;1.83;;
53309;SDS011;39197;53.200;5.792;2023-09-19T08:40:57;10.82;;;1.58;;
53309;SDS011;39197;53.200;5.792;2023-09-19T08:43:26;7.10;;;1.00;;
53309;SDS011;39197;53.200;5.792;2023-09-19T08:45:58;9.10;;;1.65;;
53309;SDS011;39197;53.200;5.792;2023-09-19T08:48:54;2.47;;;0.95;;
53309;SDS011;39197;53.200;5.792;2023-09-19T08:51:45;8.63;;;2.10;;
53309;SDS011;39197;53.200;5.792;2023-09-19T08:54:28;7.50;;;2.10;;
53309;SDS011;39197;53.200;5.792;2023-09-19T08:56:58;9.25;;;2.03;;
53309;SDS011;39197;53.200;5.792;2023-09-19T08:59:30;5.18;;;0.90;;
53309;SDS011;39197;53.200;5.792;2023-09-19T09:01:56;12.75;;;2.60;;
53309;SDS011;39197;53.200;5.792;2023-09-19T09:04:24;11.63;;;2.20;;
53309;SDS011;39197;53.200;5.792;2023-09-19T09:06:51;7.90;;;2.13;;
53309;SDS011;39197;53.200;5.792;2023-09-19T09:09:20;8.73;;;2.50;;
53309;SDS011;39197;53.200;5.792;2023-09-19T09:11:46;14.95;;;2.05;;
53309;SDS011;39197;53.200;5.792;2023-09-19T09:14:16;11.77;;;1.63;;
53309;SDS011;39197;53.200;5.792;2023-09-19T09:16:43;8.55;;;1.70;;
53309;SDS011;39197;53.200;5.792;2023-09-19T09:19:10;9.15;;;1.52;;
53309;SDS011;39197;53.200;5.792;2023-09-19T09:21:38;7.30;;;1.33;;
53309;SDS011;39197;53.200;5.792;2023-09-19T09:26:53;6.20;;;1.52;;
53309;SDS011;39197;53.200;5.792;2023-09-19T09:32:25;8.75;;;1.95;;
53309;SDS011;39197;53.200;5.792;2023-09-19T09:34:54;15.70;;;3.15;;
53309;SDS011;39197;53.200;5.792;2023-09-19T09:37:21;8.60;;;1.73;;
53309;SDS011;39197;53.200;5.792;2023-09-19T09:39:50;12.15;;;2.92;;
53309;SDS011;39197;53.200;5.792;2023-09-19T09:45:14;12.82;;;2.92;;
53309;SDS011;39197;53.200;5.792;2023-09-19T09:47:53;6.45;;;1.55;;
53309;SDS011;39197;53.200;5.792;2023-09-19T09:50:34;6.65;;;1.65;;
53309;SDS011;39197;53.200;5.792;2023-09-19T09:53:23;13.60;;;2.50;;
53309;SDS011;39197;53.200;5.792;2023-09-19T09:58:31;7.78;;;1.15;;
53309;SDS011;39197;53.200;5.792;2023-09-19T10:00:58;9.75;;;2.30;;
53309;SDS011;39197;53.200;5.792;2023-09-19T10:03:37;10.45;;;1.88;;
53309;SDS011;39197;53.200;5.792;2023-09-19T10:06:14;8.57;;;1.55;;
53309;SDS011;39197;53.200;5.792;2023-09-19T10:09:03;12.85;;;2.00;;
53309;SDS011;39197;53.200;5.792;2023-09-19T10:11:38;9.13;;;1.80;;
53309;SDS011;39197;53.200;5.792;2023-09-19T10:14:08;9.25;;;1.67;;
53309;SDS011;39197;53.200;5.792;2023-09-19T10:16:38;8.38;;;2.15;;
53309;SDS011;39197;53.200;5.792;2023-09-19T10:19:27;8.88;;;2.20;;
53309;SDS011;39197;53.200;5.792;2023-09-19T10:22:10;14.05;;;2.33;;
53309;SDS011;39197;53.200;5.792;2023-09-19T10:24:45;9.15;;;1.75;;
53309;SDS011;39197;53.200;5.792;2023-09-19T10:27:12;8.88;;;1.65;;
53309;SDS011;39197;53.200;5.792;2023-09-19T10:32:12;11.98;;;2.85;;
53309;SDS011;39197;53.200;5.792;2023-09-19T10:34:44;13.07;;;2.50;;
53309;SDS011;39197;53.200;5.792;2023-09-19T10:37:14;15.60;;;2.88;;
53309;SDS011;39197;53.200;5.792;2023-09-19T10:39:45;15.32;;;2.75;;
53309;SDS011;39197;53.200;5.792;2023-09-19T10:42:14;14.63;;;3.97;;
53309;SDS011;39197;53.200;5.792;2023-09-19T10:44:45;13.68;;;2.30;;
53309;SDS011;39197;53.200;5.792;2023-09-19T10:47:15;14.25;;;2.70;;
53309;SDS011;39197;53.200;5.792;2023-09-19T10:49:44;11.30;;;2.38;;
53309;SDS011;39197;53.200;5.792;2023-09-19T10:52:18;12.25;;;2.72;;
53309;SDS011;39197;53.200;5.792;2023-09-19T10:54:48;12.07;;;2.72;;
53309;SDS011;39197;53.200;5.792;2023-09-19T10:57:22;13.07;;;2.03;;
53309;SDS011;39197;53.200;5.792;2023-09-19T11:00:05;14.73;;;2.50;;
53309;SDS011;39197;53.200;5.792;2023-09-19T11:05:40;12.98;;;2.53;;
53309;SDS011;39197;53.200;5.792;2023-09-19T11:08:07;12.93;;;2.45;;
53309;SDS011;39197;53.200;5.792;2023-09-19T11:10:46;14.20;;;3.28;;
53309;SDS011;39197;53.200;5.792;2023-09-19T11:13:25;10.50;;;3.03;;
53309;SDS011;39197;53.200;5.792;2023-09-19T11:27:11;14.88;;;3.20;;
53309;SDS011;39197;53.200;5.792;2023-09-19T11:29:39;17.65;;;3.25;;
53309;SDS011;39197;53.200;5.792;2023-09-19T11:32:05;17.38;;;3.08;;
53309;SDS011;39197;53.200;5.792;2023-09-19T11:39:36;14.23;;;3.10;;
53309;SDS011;39197;53.200;5.792;2023-09-19T11:48:22;14.02;;;2.50;;
53309;SDS011;39197;53.200;5.792;2023-09-19T11:50:52;14.80;;;2.67;;
53309;SDS011;39197;53.200;5.792;2023-09-19T11:53:18;19.55;;;3.15;;
53309;SDS011;39197;53.200;5.792;2023-09-19T11:55:45;19.25;;;3.15;;
53309;SDS011;39197;53.200;5.792;2023-09-19T11:58:11;10.60;;;2.70;;
53309;SDS011;39197;53.200;5.792;2023-09-19T12:00:54;14.77;;;3.08;;
53309;SDS011;39197;53.200;5.792;2023-09-19T12:03:24;16.42;;;2.75;;
53309;SDS011;39197;53.200;5.792;2023-09-19T12:05:55;12.48;;;2.33;;
53309;SDS011;39197;53.200;5.792;2023-09-19T12:08:23;6.88;;;1.42;;
53309;SDS011;39197;53.200;5.792;2023-09-19T12:10:49;14.25;;;3.42;;
53309;SDS011;39197;53.200;5.792;2023-09-19T12:13:19;10.63;;;2.20;;
53309;SDS011;39197;53.200;5.792;2023-09-19T12:15:46;9.00;;;1.75;;
53309;SDS011;39197;53.200;5.792;2023-09-19T12:18:27;9.23;;;2.08;;
53309;SDS011;39197;53.200;5.792;2023-09-19T12:20:56;6.87;;;1.97;;
53309;SDS011;39197;53.200;5.792;2023-09-19T12:23:23;11.52;;;1.70;;
53309;SDS011;39197;53.200;5.792;2023-09-19T12:25:51;11.10;;;1.88;;
53309;SDS011;39197;53.200;5.792;2023-09-19T12:28:19;8.75;;;1.58;;
53309;SDS011;39197;53.200;5.792;2023-09-19T12:30:48;7.32;;;1.42;;
53309;SDS011;39197;53.200;5.792;2023-09-19T12:33:17;9.10;;;1.63;;
53309;SDS011;39197;53.200;5.792;2023-09-19T12:35:51;9.90;;;1.80;;
53309;SDS011;39197;53.200;5.792;2023-09-19T12:38:28;6.43;;;1.02;;
53309;SDS011;39197;53.200;5.792;2023-09-19T12:40:57;7.10;;;1.35;;
53309;SDS011;39197;53.200;5.792;2023-09-19T12:43:28;6.10;;;1.95;;
53309;SDS011;39197;53.200;5.792;2023-09-19T12:45:57;9.23;;;2.20;;
53309;SDS011;39197;53.200;5.792;2023-09-19T12:48:25;10.57;;;1.23;;
53309;SDS011;39197;53.200;5.792;2023-09-19T12:51:07;10.23;;;1.80;;
53309;SDS011;39197;53.200;5.792;2023-09-19T12:53:44;12.43;;;2.05;;
53309;SDS011;39197;53.200;5.792;2023-09-19T12:56:15;9.65;;;1.73;;
53309;SDS011;39197;53.200;5.792;2023-09-19T13:01:24;13.10;;;2.03;;
53309;SDS011;39197;53.200;5.792;2023-09-19T13:04:11;11.20;;;1.98;;
53309;SDS011;39197;53.200;5.792;2023-09-19T13:06:48;8.85;;;1.80;;
53309;SDS011;39197;53.200;5.792;2023-09-19T13:09:18;6.80;;;1.20;;
53309;SDS011;39197;53.200;5.792;2023-09-19T13:11:45;9.02;;;1.60;;
53309;SDS011;39197;53.200;5.792;2023-09-19T13:19:45;7.78;;;1.85;;
53309;SDS011;39197;53.200;5.792;2023-09-19T13:25:08;8.75;;;1.50;;
53309;SDS011;39197;53.200;5.792;2023-09-19T13:27:43;9.35;;;1.65;;
53309;SDS011;39197;53.200;5.792;2023-09-19T13:30:11;7.90;;;1.00;;
53309;SDS011;39197;53.200;5.792;2023-09-19T13:32:37;9.77;;;2.17;;
53309;SDS011;39197;53.200;5.792;2023-09-19T13:35:05;6.28;;;1.25;;
53309;SDS011;39197;53.200;5.792;2023-09-19T13:37:34;9.43;;;1.52;;
53309;SDS011;39197;53.200;5.792;2023-09-19T13:42:34;11.35;;;1.90;;
53309;SDS011;39197;53.200;5.792;2023-09-19T13:45:02;12.15;;;3.10;;
53309;SDS011;39197;53.200;5.792;2023-09-19T13:47:29;7.82;;;1.35;;
53309;SDS011;39197;53.200;5.792;2023-09-19T13:49:55;6.82;;;1.67;;
53309;SDS011;39197;53.200;5.792;2023-09-19T13:52:22;7.93;;;1.60;;
53309;SDS011;39197;53.200;5.792;2023-09-19T13:54:51;5.72;;;0.90;;
53309;SDS011;39197;53.200;5.792;2023-09-19T13:57:17;9.73;;;1.90;;
53309;SDS011;39197;53.200;5.792;2023-09-19T13:59:43;9.23;;;1.70;;
53309;SDS011;39197;53.200;5.792;2023-09-19T14:02:09;12.32;;;2.55;;
53309;SDS011;39197;53.200;5.792;2023-09-19T14:04:35;12.73;;;2.33;;
53309;SDS011;39197;53.200;5.792;2023-09-19T14:07:01;10.68;;;1.73;;
53309;SDS011;39197;53.200;5.792;2023-09-19T14:09:27;6.03;;;1.05;;
53309;SDS011;39197;53.200;5.792;2023-09-19T14:11:53;13.00;;;2.92;;
53309;SDS011;39197;53.200;5.792;2023-09-19T14:14:19;4.93;;;1.25;;
53309;SDS011;39197;53.200;5.792;2023-09-19T14:16:46;12.93;;;2.72;;
53309;SDS011;39197;53.200;5.792;2023-09-19T14:19:12;9.23;;;1.85;;
53309;SDS011;39197;53.200;5.792;2023-09-19T14:21:40;13.35;;;2.10;;
53309;SDS011;39197;53.200;5.792;2023-09-19T14:24:05;12.68;;;2.72;;
53309;SDS011;39197;53.200;5.792;2023-09-19T14:26:34;16.33;;;3.00;;
53309;SDS011;39197;53.200;5.792;2023-09-19T14:29:00;12.52;;;2.17;;
53309;SDS011;39197;53.200;5.792;2023-09-19T14:31:27;8.10;;;1.38;;
53309;SDS011;39197;53.200;5.792;2023-09-19T14:33:53;15.07;;;2.45;;
53309;SDS011;39197;53.200;5.792;2023-09-19T14:36:21;8.35;;;2.00;;
53309;SDS011;39197;53.200;5.792;2023-09-19T14:38:51;10.82;;;2.90;;
53309;SDS011;39197;53.200;5.792;2023-09-19T14:41:24;8.35;;;1.25;;
53309;SDS011;39197;53.200;5.792;2023-09-19T14:43:53;13.25;;;3.13;;
53309;SDS011;39197;53.200;5.792;2023-09-19T14:46:22;7.82;;;1.88;;
53309;SDS011;39197;53.200;5.792;2023-09-19T14:48:56;9.82;;;2.17;;
53309;SDS011;39197;53.200;5.792;2023-09-19T14:51:24;15.82;;;2.17;;
53309;SDS011;39197;53.200;5.792;2023-09-19T14:53:50;10.93;;;2.05;;
53309;SDS011;39197;53.200;5.792;2023-09-19T14:56:16;6.88;;;2.60;;
53309;SDS011;39197;53.200;5.792;2023-09-19T14:58:44;15.40;;;2.22;;
53309;SDS011;39197;53.200;5.792;2023-09-19T15:01:12;18.02;;;2.92;;
53309;SDS011;39197;53.200;5.792;2023-09-19T15:03:39;13.60;;;3.03;;
53309;SDS011;39197;53.200;5.792;2023-09-19T15:06:07;16.27;;;3.10;;
53309;SDS011;39197;53.200;5.792;2023-09-19T15:08:34;8.55;;;2.38;;
53309;SDS011;39197;53.200;5.792;2023-09-19T15:11:03;20.92;;;3.72;;
53309;SDS011;39197;53.200;5.792;2023-09-19T15:13:33;16.70;;;2.95;;
53309;SDS011;39197;53.200;5.792;2023-09-19T15:16:00;18.98;;;3.42;;
53309;SDS011;39197;53.200;5.792;2023-09-19T15:18:27;15.35;;;2.67;;
53309;SDS011;39197;53.200;5.792;2023-09-19T15:20:55;24.63;;;4.97;;
53309;SDS011;39197;53.200;5.792;2023-09-19T15:23:31;17.40;;;3.42;;
53309;SDS011;39197;53.200;5.792;2023-09-19T15:25:59;22.08;;;3.08;;
53309;SDS011;39197;53.200;5.792;2023-09-19T15:28:26;26.05;;;4.35;;
53309;SDS011;39197;53.200;5.792;2023-09-19T15:31:00;21.95;;;4.90;;
53309;SDS011;39197;53.200;5.792;2023-09-19T15:33:32;27.58;;;5.93;;
53309;SDS011;39197;53.200;5.792;2023-09-19T15:41:22;20.58;;;5.32;;
53309;SDS011;39197;53.200;5.792;2023-09-19T15:43:52;15.68;;;4.68;;
53309;SDS011;39197;53.200;5.792;2023-09-19T15:46:19;20.23;;;4.28;;
53309;SDS011;39197;53.200;5.792;2023-09-19T15:48:45;19.55;;;3.38;;
53309;SDS011;39197;53.200;5.792;2023-09-19T15:51:11;18.13;;;3.95;;
53309;SDS011;39197;53.200;5.792;2023-09-19T15:53:41;16.15;;;3.80;;
53309;SDS011;39197;53.200;5.792;2023-09-19T15:56:15;20.08;;;3.58;;
53309;SDS011;39197;53.200;5.792;2023-09-19T15:58:46;11.77;;;2.93;;
53309;SDS011;39197;53.200;5.792;2023-09-19T16:01:13;17.15;;;2.78;;
53309;SDS011;39197;53.200;5.792;2023-09-19T16:03:42;17.63;;;4.13;;
53309;SDS011;39197;53.200;5.792;2023-09-19T16:08:42;17.05;;;3.88;;
53309;SDS011;39197;53.200;5.792;2023-09-19T16:11:08;16.90;;;3.60;;
53309;SDS011;39197;53.200;5.792;2023-09-19T16:13:38;11.73;;;2.50;;